createdAt,value
2019-01-08T00:00:54.750Z,94.87
2019-01-08T00:01:54.536Z,95
2019-01-08T00:02:54.751Z,95.08
2019-01-08T00:03:54.660Z,95.03
2019-01-08T00:04:54.546Z,95.12
2019-01-08T00:05:54.898Z,95.23
2019-01-08T00:06:54.566Z,95.41
2019-01-08T00:07:54.607Z,95.08
2019-01-08T00:08:54.716Z,94.99
2019-01-08T00:09:54.689Z,95.25
2019-01-08T00:10:54.664Z,94.95
2019-01-08T00:11:55.415Z,94.9
2019-01-08T00:12:54.514Z,95.04
2019-01-08T00:13:55.101Z,95.02
2019-01-08T00:14:54.656Z,94.93
2019-01-08T00:15:54.734Z,95
2019-01-08T00:16:54.939Z,95.16
2019-01-08T00:17:54.905Z,95.26
2019-01-08T00:18:54.898Z,95.23
2019-01-08T00:19:54.837Z,95.41
2019-01-08T00:20:55.330Z,95.55
2019-01-08T00:21:54.586Z,95.62
2019-01-08T00:22:54.900Z,95.66
2019-01-08T00:23:54.877Z,95.6
2019-01-08T00:24:54.539Z,95.8
2019-01-08T00:25:54.489Z,95.9
2019-01-08T00:26:54.964Z,96.13
2019-01-08T00:27:54.826Z,96.04
2019-01-08T00:28:54.727Z,96.02
2019-01-08T00:29:54.506Z,95.9
2019-01-08T00:30:54.743Z,95.64
2019-01-08T00:31:54.486Z,95.83
2019-01-08T00:32:54.498Z,95.76
2019-01-08T00:33:54.523Z,95.84
2019-01-08T00:34:54.795Z,95.67
2019-01-08T00:35:54.516Z,95.68
2019-01-08T00:36:54.876Z,95.7
2019-01-08T00:37:54.683Z,95.9
2019-01-08T00:38:54.487Z,95.87
2019-01-08T00:39:54.617Z,95.83
2019-01-08T00:40:54.709Z,95.98
2019-01-08T00:41:54.300Z,96.08
2019-01-08T00:42:54.643Z,96.24
2019-01-08T00:43:54.857Z,96.26
2019-01-08T00:44:54.501Z,96.3
2019-01-08T00:45:54.634Z,96.35
2019-01-08T00:46:54.899Z,96.28
2019-01-08T00:47:54.543Z,96.25
2019-01-08T00:48:54.662Z,96.4
2019-01-08T00:49:54.471Z,96.35
2019-01-08T00:50:54.477Z,96.38
2019-01-08T00:51:54.468Z,96.26
2019-01-08T00:52:54.649Z,96.44
2019-01-08T00:53:54.691Z,96.25
2019-01-08T00:54:54.702Z,96.26
2019-01-08T00:55:54.921Z,96.27
2019-01-08T00:56:54.886Z,96.4
2019-01-08T00:57:54.489Z,96.41
2019-01-08T00:58:54.502Z,96.51
2019-01-08T00:59:54.456Z,96.61
2019-01-08T01:00:54.481Z,96.51
2019-01-08T01:01:54.543Z,96.4
2019-01-08T01:02:54.524Z,96.47
2019-01-08T01:03:54.695Z,96.43
2019-01-08T01:04:54.672Z,96.45
2019-01-08T01:05:54.467Z,96.43
2019-01-08T01:06:54.473Z,96.56
2019-01-08T01:07:54.871Z,96.64
2019-01-08T01:08:54.486Z,96.67
2019-01-08T01:09:55.004Z,96.76
2019-01-08T01:10:54.453Z,96.83
2019-01-08T01:11:54.438Z,96.6
2019-01-08T01:12:54.545Z,96.59
2019-01-08T01:13:54.524Z,96.66
2019-01-08T01:14:54.573Z,96.41
2019-01-08T01:15:54.467Z,96.31
2019-01-08T01:16:54.846Z,96.36
2019-01-08T01:17:54.411Z,96.38
2019-01-08T01:18:54.938Z,96.54
2019-01-08T01:19:54.613Z,96.6
2019-01-08T01:20:54.474Z,96.55
2019-01-08T01:21:54.613Z,96.52
2019-01-08T01:22:54.523Z,96.43
2019-01-08T01:23:54.478Z,96.54
2019-01-08T01:24:54.868Z,96.57
2019-01-08T01:25:54.508Z,96.52
2019-01-08T01:26:54.440Z,96.45
2019-01-08T01:27:54.701Z,96.51
2019-01-08T01:28:59.859Z,96.5
2019-01-08T01:29:54.586Z,96.44
2019-01-08T01:30:54.709Z,96.47
2019-01-08T01:31:54.681Z,96.57
2019-01-08T01:32:54.425Z,96.6
2019-01-08T01:33:54.531Z,96.21
2019-01-08T01:34:54.605Z,96.33
2019-01-08T01:35:54.775Z,96.23
2019-01-08T01:36:54.761Z,96.36
2019-01-08T01:37:54.461Z,96.26
2019-01-08T01:38:54.547Z,96.28
2019-01-08T01:39:54.710Z,96.38
2019-01-08T01:40:54.404Z,96.47
2019-01-08T01:41:54.517Z,96.52
2019-01-08T01:42:54.677Z,96.6
2019-01-08T01:43:54.554Z,96.45
2019-01-08T01:44:54.764Z,96.56
2019-01-08T01:45:54.854Z,96.54
2019-01-08T01:46:54.491Z,96.56
2019-01-08T01:47:54.616Z,96.56
2019-01-08T01:48:54.673Z,96.38
2019-01-08T01:49:54.835Z,96.44
2019-01-08T01:50:54.387Z,96.38
2019-01-08T01:51:55.164Z,96.35
2019-01-08T01:52:54.698Z,96.42
2019-01-08T01:53:54.424Z,96.6
2019-01-08T01:54:54.716Z,96.63
2019-01-08T01:55:54.475Z,96.54
2019-01-08T01:56:54.379Z,96.3
2019-01-08T01:57:54.677Z,96.36
2019-01-08T01:58:54.508Z,96.44
2019-01-08T01:59:54.405Z,96.59
2019-01-08T02:00:54.462Z,96.39
2019-01-08T02:01:54.566Z,96.38
2019-01-08T02:02:54.976Z,96.5
2019-01-08T02:03:54.491Z,96.4
2019-01-08T02:04:54.600Z,96.38
2019-01-08T02:05:54.548Z,96.38
2019-01-08T02:06:54.577Z,96.28
2019-01-08T02:07:54.486Z,96.26
2019-01-08T02:08:54.439Z,96.33
2019-01-08T02:09:54.756Z,96.27
2019-01-08T02:10:54.564Z,96.43
2019-01-08T02:11:55.229Z,96.51
2019-01-08T02:12:54.367Z,96.57
2019-01-08T02:13:54.684Z,96.42
2019-01-08T02:14:54.765Z,96.38
2019-01-08T02:15:54.737Z,96.29
2019-01-08T02:16:54.497Z,96.56
2019-01-08T02:17:54.494Z,96.59
2019-01-08T02:18:54.639Z,96.71
2019-01-08T02:19:54.500Z,96.7
2019-01-08T02:20:54.416Z,96.78
2019-01-08T02:21:54.403Z,96.79
2019-01-08T02:22:54.388Z,96.98
2019-01-08T02:23:54.372Z,96.94
2019-01-08T02:24:54.432Z,96.93
2019-01-08T02:25:54.381Z,96.99
2019-01-08T02:26:54.598Z,97.02
2019-01-08T02:27:54.880Z,96.99
2019-01-08T02:28:54.454Z,96.91
2019-01-08T02:29:54.344Z,96.92
2019-01-08T02:30:54.596Z,97.02
2019-01-08T02:31:54.545Z,97.08
2019-01-08T02:32:54.382Z,97.03
2019-01-08T02:33:54.378Z,97.1
2019-01-08T02:34:54.500Z,97.12
2019-01-08T02:35:54.552Z,97.12
2019-01-08T02:36:54.357Z,97.17
2019-01-08T02:37:55.158Z,97.31
2019-01-08T02:38:54.531Z,97.38
2019-01-08T02:39:54.680Z,97.43
2019-01-08T02:40:54.382Z,97.38
2019-01-08T02:41:54.494Z,97.37
2019-01-08T02:42:54.450Z,97.5
2019-01-08T02:43:54.480Z,97.58
2019-01-08T02:44:54.639Z,97.65
2019-01-08T02:45:54.317Z,97.56
2019-01-08T02:46:54.381Z,97.54
2019-01-08T02:47:54.361Z,97.71
2019-01-08T02:48:54.361Z,97.7
2019-01-08T02:49:54.473Z,97.72
2019-01-08T02:50:54.340Z,97.88
2019-01-08T02:51:54.470Z,97.88
2019-01-08T02:52:54.337Z,98
2019-01-08T02:53:54.344Z,97.99
2019-01-08T02:54:54.381Z,97.95
2019-01-08T02:55:54.369Z,97.96
2019-01-08T02:56:54.333Z,98.05
2019-01-08T02:57:54.325Z,98.08
2019-01-08T02:58:54.290Z,98.06
2019-01-08T02:59:54.390Z,98.06
2019-01-08T03:00:54.824Z,98.1
2019-01-08T03:01:54.349Z,98.11
2019-01-08T03:02:54.643Z,98.16
2019-01-08T03:03:54.349Z,98.21
2019-01-08T03:04:54.341Z,98.26
2019-01-08T03:05:54.573Z,98.31
2019-01-08T03:06:54.420Z,98.38
2019-01-08T03:07:54.528Z,98.37
2019-01-08T03:08:54.717Z,98.38
2019-01-08T03:09:54.273Z,98.39
2019-01-08T03:10:55.104Z,98.4
2019-01-08T03:11:54.566Z,98.38
2019-01-08T03:12:54.387Z,98.44
2019-01-08T03:13:54.607Z,98.49
2019-01-08T03:14:54.615Z,98.41
2019-01-08T03:15:54.509Z,98.35
2019-01-08T03:16:54.359Z,98.43
2019-01-08T03:17:54.396Z,98.33
2019-01-08T03:18:54.268Z,98.42
2019-01-08T03:19:54.497Z,98.48
2019-01-08T03:20:54.490Z,98.62
2019-01-08T03:21:54.584Z,98.38
2019-01-08T03:22:54.650Z,98.47
2019-01-08T03:23:54.515Z,98.52
2019-01-08T03:24:54.608Z,98.48
2019-01-08T03:25:54.310Z,98.56
2019-01-08T03:26:54.555Z,98.46
2019-01-08T03:27:54.424Z,98.41
2019-01-08T03:28:54.408Z,98.54
2019-01-08T03:29:54.569Z,98.62
2019-01-08T03:30:54.420Z,98.57
2019-01-08T03:31:54.564Z,98.65
2019-01-08T03:32:54.463Z,98.62
2019-01-08T03:33:54.604Z,98.65
2019-01-08T03:34:54.409Z,98.68
2019-01-08T03:35:54.614Z,98.65
2019-01-08T03:36:54.553Z,98.69
2019-01-08T03:37:54.490Z,98.71
2019-01-08T03:38:54.410Z,98.58
2019-01-08T03:39:54.805Z,98.64
2019-01-08T03:40:54.937Z,98.68
2019-01-08T03:41:54.261Z,98.59
2019-01-08T03:42:54.236Z,98.72
2019-01-08T03:43:54.402Z,98.66
2019-01-08T03:44:54.307Z,98.73
2019-01-08T03:45:54.279Z,98.67
2019-01-08T03:46:54.291Z,98.62
2019-01-08T03:47:54.429Z,98.56
2019-01-08T03:48:54.397Z,98.53
2019-01-08T03:49:54.271Z,98.59
2019-01-08T03:50:54.389Z,98.54
2019-01-08T03:51:54.706Z,98.54
2019-01-08T03:52:54.278Z,98.56
2019-01-08T03:53:54.352Z,98.47
2019-01-08T03:54:54.547Z,98.43
2019-01-08T03:55:54.355Z,98.45
2019-01-08T03:56:54.269Z,98.48
2019-01-08T03:57:54.358Z,98.47
2019-01-08T03:58:54.430Z,98.47
2019-01-08T03:59:54.625Z,98.37
2019-01-08T04:00:54.347Z,98.31
2019-01-08T04:01:54.381Z,98.39
2019-01-08T04:02:54.508Z,98.42
2019-01-08T04:03:54.258Z,98.37
2019-01-08T04:04:54.670Z,98.41
2019-01-08T04:05:54.411Z,98.41
2019-01-08T04:06:54.949Z,98.25
2019-01-08T04:07:54.424Z,98.18
2019-01-08T04:08:54.409Z,98.17
2019-01-08T04:09:54.414Z,98.12
2019-01-08T04:10:54.554Z,98.13
2019-01-08T04:11:54.233Z,98.11
2019-01-08T04:12:54.382Z,98.01
2019-01-08T04:13:54.569Z,98
2019-01-08T04:14:54.262Z,97.97
2019-01-08T04:15:54.323Z,98.15
2019-01-08T04:16:54.408Z,98.08
2019-01-08T04:17:54.332Z,98.1
2019-01-08T04:18:54.328Z,98.15
2019-01-08T04:19:54.496Z,98.21
2019-01-08T04:20:54.555Z,98.2
2019-01-08T04:21:54.258Z,98.27
2019-01-08T04:22:54.524Z,98.28
2019-01-08T04:23:54.199Z,98.35
2019-01-08T04:24:54.269Z,98.19
2019-01-08T04:25:54.342Z,98.2
2019-01-08T04:26:54.204Z,98.16
2019-01-08T04:27:54.216Z,98.21
2019-01-08T04:28:54.276Z,98.22
2019-01-08T04:29:54.249Z,98.21
2019-01-08T04:30:54.170Z,98.16
2019-01-08T04:31:54.251Z,98.2
2019-01-08T04:32:54.269Z,98.29
2019-01-08T04:33:54.271Z,98.29
2019-01-08T04:34:54.177Z,98.31
2019-01-08T04:35:54.324Z,98.39
2019-01-08T04:36:54.177Z,98.44
2019-01-08T04:37:54.246Z,98.45
2019-01-08T04:38:54.220Z,98.23
2019-01-08T04:39:54.260Z,98.3
2019-01-08T04:40:54.211Z,98.37
2019-01-08T04:41:54.201Z,98.25
2019-01-08T04:42:54.459Z,98.34
2019-01-08T04:43:54.368Z,98.31
2019-01-08T04:44:54.604Z,98.29
2019-01-08T04:45:54.446Z,98.3
2019-01-08T04:46:54.154Z,98.28
2019-01-08T04:47:54.255Z,98.09
2019-01-08T04:48:54.523Z,98.15
2019-01-08T04:49:54.262Z,98.17
2019-01-08T04:50:54.641Z,98.23
2019-01-08T04:51:54.169Z,98.28
2019-01-08T04:52:54.177Z,98.18
2019-01-08T04:53:54.231Z,98.22
2019-01-08T04:54:54.183Z,98.11
2019-01-08T04:55:54.162Z,98.09
2019-01-08T04:56:54.560Z,98.15
2019-01-08T04:57:54.680Z,98.16
2019-01-08T04:58:54.148Z,98.11
2019-01-08T04:59:58.834Z,98.13
2019-01-08T05:00:54.165Z,98.08
2019-01-08T05:01:54.226Z,98.15
2019-01-08T05:02:54.263Z,98.19
2019-01-08T05:03:54.453Z,98.21
2019-01-08T05:04:54.452Z,98.26
2019-01-08T05:05:54.238Z,98.16
2019-01-08T05:06:54.474Z,98.14
2019-01-08T05:07:54.282Z,98.24
2019-01-08T05:08:54.300Z,98.29
2019-01-08T05:09:54.521Z,98.28
2019-01-08T05:10:54.324Z,98.26
2019-01-08T05:11:54.173Z,98.24
2019-01-08T05:12:54.130Z,98.25
2019-01-08T05:13:54.590Z,98.33
2019-01-08T05:14:54.115Z,98.41
2019-01-08T05:15:54.317Z,98.4
2019-01-08T05:16:54.221Z,98.34
2019-01-08T05:17:54.199Z,98.38
2019-01-08T05:18:54.951Z,98.32
2019-01-08T05:19:54.168Z,98.33
2019-01-08T05:20:54.341Z,98.33
2019-01-08T05:21:54.278Z,98.3
2019-01-08T05:22:54.206Z,98.24
2019-01-08T05:23:54.327Z,98.3
2019-01-08T05:24:54.383Z,98.17
2019-01-08T05:25:54.208Z,98.11
2019-01-08T05:26:54.185Z,98.15
2019-01-08T05:27:54.225Z,98.21
2019-01-08T05:28:54.521Z,98.2
2019-01-08T05:29:54.168Z,98.17
2019-01-08T05:30:54.119Z,98.19
2019-01-08T05:31:54.434Z,98.09
2019-01-08T05:32:54.557Z,98.18
2019-01-08T05:33:54.136Z,98.28
2019-01-08T05:34:54.095Z,98.25
2019-01-08T05:35:54.203Z,98.18
2019-01-08T05:36:54.910Z,98.24
2019-01-08T05:37:54.212Z,98.14
2019-01-08T05:38:54.978Z,98.36
2019-01-08T05:39:54.438Z,98.44
2019-01-08T05:40:54.131Z,98.34
2019-01-08T05:41:54.536Z,98.51
2019-01-08T05:42:54.505Z,98.58
2019-01-08T05:43:54.350Z,98.52
2019-01-08T05:44:54.118Z,98.6
2019-01-08T05:45:54.267Z,98.6
2019-01-08T05:46:54.332Z,98.57
2019-01-08T05:47:54.294Z,98.57
2019-01-08T05:48:54.243Z,98.58
2019-01-08T05:49:54.151Z,98.58
2019-01-08T05:50:54.134Z,98.59
2019-01-08T05:51:54.304Z,98.65
2019-01-08T05:52:54.123Z,98.73
2019-01-08T05:53:54.305Z,98.77
2019-01-08T05:54:54.215Z,98.69
2019-01-08T05:55:54.481Z,98.73
2019-01-08T05:56:54.141Z,98.71
2019-01-08T05:57:54.105Z,98.79
2019-01-08T05:58:54.468Z,98.81
2019-01-08T05:59:54.115Z,98.9
2019-01-08T06:00:54.106Z,99.03
2019-01-08T06:01:54.060Z,99.02
2019-01-08T06:02:54.393Z,99.19
2019-01-08T06:03:54.167Z,99.28
2019-01-08T06:04:54.207Z,99.22
2019-01-08T06:05:54.137Z,99.38
2019-01-08T06:06:54.097Z,99.48
2019-01-08T06:07:54.334Z,99.64
2019-01-08T06:08:54.074Z,99.66
2019-01-08T06:09:54.093Z,99.51
2019-01-08T06:10:54.070Z,99.46
2019-01-08T06:11:54.036Z,99.41
2019-01-08T06:12:54.052Z,99.32
2019-01-08T06:13:54.078Z,99.29
2019-01-08T06:14:54.079Z,99.36
2019-01-08T06:15:54.133Z,99.3
2019-01-08T06:16:54.061Z,99.32
2019-01-08T06:17:54.197Z,99.33
2019-01-08T06:18:54.247Z,99.33
2019-01-08T06:19:55.163Z,99.24
2019-01-08T06:20:54.049Z,99.47
2019-01-08T06:21:54.127Z,99.45
2019-01-08T06:22:54.072Z,99.39
2019-01-08T06:23:54.353Z,99.56
2019-01-08T06:24:54.196Z,99.55
2019-01-08T06:25:54.268Z,99.58
2019-01-08T06:26:54.190Z,99.53
2019-01-08T06:27:54.366Z,99.65
2019-01-08T06:28:54.246Z,99.52
2019-01-08T06:29:54.219Z,99.58
2019-01-08T06:30:54.289Z,99.59
2019-01-08T06:31:54.397Z,99.65
2019-01-08T06:32:54.488Z,99.59
2019-01-08T06:33:54.185Z,99.66
2019-01-08T06:34:54.095Z,99.62
2019-01-08T06:35:54.201Z,99.71
2019-01-08T06:36:54.173Z,99.61
2019-01-08T06:37:54.065Z,99.49
2019-01-08T06:38:54.389Z,99.57
2019-01-08T06:39:54.206Z,99.6
2019-01-08T06:40:57.650Z,99.65
2019-01-08T06:41:54.052Z,99.51
2019-01-08T06:42:54.266Z,99.46
2019-01-08T06:43:54.021Z,99.46
2019-01-08T06:44:54.078Z,99.38
2019-01-08T06:45:54.074Z,99.27
2019-01-08T06:46:54.255Z,99.3
2019-01-08T06:47:54.389Z,99.21
2019-01-08T06:48:54.089Z,99.39
2019-01-08T06:49:54.455Z,99.43
2019-01-08T06:50:56.105Z,99.33
2019-01-08T06:51:54.324Z,99.4
2019-01-08T06:52:54.203Z,99.41
2019-01-08T06:53:54.085Z,99.4
2019-01-08T06:54:54.162Z,99.38
2019-01-08T06:55:54.231Z,99.25
2019-01-08T06:56:54.844Z,99.38
2019-01-08T06:57:54.256Z,99.37
2019-01-08T06:58:54.217Z,99.43
2019-01-08T06:59:54.288Z,99.49
2019-01-08T07:00:54.175Z,99.42
2019-01-08T07:01:54.003Z,99.42
2019-01-08T07:02:54.069Z,99.52
2019-01-08T07:03:54.337Z,99.58
2019-01-08T07:04:54.304Z,99.54
2019-01-08T07:05:54.263Z,99.55
2019-01-08T07:06:54.032Z,99.57
2019-01-08T07:07:54.057Z,99.51
2019-01-08T07:08:54.336Z,99.63
2019-01-08T07:09:54.077Z,99.76
2019-01-08T07:10:54.306Z,99.82
2019-01-08T07:11:54.217Z,99.82
2019-01-08T07:12:54.800Z,99.85
2019-01-08T07:13:54.236Z,99.89
2019-01-08T07:14:54.371Z,99.97
2019-01-08T07:15:54.310Z,99.91
2019-01-08T07:16:54.080Z,100
2019-01-08T07:17:53.985Z,100
2019-01-08T07:18:54.025Z,100
2019-01-08T07:19:54.261Z,100
2019-01-08T07:20:54.038Z,100
2019-01-08T07:21:54.308Z,100
2019-01-08T07:22:53.971Z,100
2019-01-08T07:23:53.983Z,100
2019-01-08T07:24:54.081Z,100
2019-01-08T07:25:54.337Z,100
2019-01-08T07:26:54.375Z,100
2019-01-08T07:27:54.780Z,100
2019-01-08T07:28:54.056Z,100
2019-01-08T07:29:54.074Z,100
2019-01-08T07:30:53.986Z,100
2019-01-08T07:31:53.963Z,100
2019-01-08T07:32:54.177Z,100
2019-01-08T07:33:54.774Z,100
2019-01-08T07:34:54.132Z,100
2019-01-08T07:35:54.791Z,100
2019-01-08T07:36:54.438Z,100
2019-01-08T07:37:54.088Z,100
2019-01-08T07:38:54.248Z,100
2019-01-08T07:39:54.045Z,100
2019-01-08T07:40:54.162Z,100
2019-01-08T07:41:54.782Z,100
2019-01-08T07:42:54.035Z,100
2019-01-08T07:43:54.244Z,100
2019-01-08T07:44:54.270Z,100
2019-01-08T07:45:53.994Z,100
2019-01-08T07:46:53.988Z,100
2019-01-08T07:47:54.691Z,100
2019-01-08T07:48:54.176Z,100
2019-01-08T07:49:54.088Z,100
2019-01-08T07:50:54.108Z,100
2019-01-08T07:51:54.072Z,100
2019-01-08T07:52:53.943Z,100
2019-01-08T07:53:54.017Z,100
2019-01-08T07:54:53.969Z,100
2019-01-08T07:55:54.353Z,100
2019-01-08T07:56:53.962Z,100
2019-01-08T07:57:54.255Z,100
2019-01-08T07:58:54.140Z,100
2019-01-08T07:59:53.963Z,100
2019-01-08T08:00:53.961Z,100
2019-01-08T08:01:53.943Z,100
2019-01-08T08:02:53.913Z,100
2019-01-08T08:03:53.968Z,100
2019-01-08T08:04:54.309Z,100
2019-01-08T08:05:54.022Z,100
2019-01-08T08:06:54.053Z,100
2019-01-08T08:07:54.511Z,100
2019-01-08T08:08:54.400Z,100
2019-01-08T08:09:54.306Z,100
2019-01-08T08:10:54.404Z,100
2019-01-08T08:11:54.062Z,100
2019-01-08T08:12:54.028Z,100
2019-01-08T08:13:54.091Z,100
2019-01-08T08:14:53.966Z,100
2019-01-08T08:15:54.560Z,100
2019-01-08T08:16:54.178Z,100
2019-01-08T08:17:54.048Z,100
2019-01-08T08:18:54.228Z,100
2019-01-08T08:19:54.084Z,100
2019-01-08T08:20:54.077Z,100
2019-01-08T08:21:54.098Z,100
2019-01-08T08:22:54.011Z,100
2019-01-08T08:23:53.922Z,100
2019-01-08T08:24:55.841Z,100
2019-01-08T08:25:54.754Z,100
2019-01-08T08:26:54.015Z,100
2019-01-08T08:27:54.215Z,100
2019-01-08T08:28:54.198Z,100
2019-01-08T08:29:54.324Z,100
2019-01-08T08:30:58.487Z,100
2019-01-08T08:31:54.234Z,100
2019-01-08T08:32:54.091Z,100
2019-01-08T08:33:54.199Z,100
2019-01-08T08:34:53.846Z,100
2019-01-08T08:35:54.358Z,100
2019-01-08T08:36:53.923Z,100
2019-01-08T08:37:53.895Z,100
2019-01-08T08:38:54.016Z,100
2019-01-08T08:39:54.710Z,100
2019-01-08T08:40:53.944Z,100
2019-01-08T08:41:54.155Z,100
2019-01-08T08:42:54.228Z,100
2019-01-08T08:43:53.924Z,100
2019-01-08T08:44:53.986Z,100
2019-01-08T08:45:54.223Z,100
2019-01-08T08:46:54.018Z,100
2019-01-08T08:47:54.096Z,100
2019-01-08T08:48:54.107Z,100
2019-01-08T08:49:54.001Z,100
2019-01-08T08:50:54.212Z,100
2019-01-08T08:51:53.923Z,99.98
2019-01-08T08:52:54.119Z,100
2019-01-08T08:53:54.473Z,100
2019-01-08T08:54:54.054Z,100
2019-01-08T08:55:53.849Z,100
2019-01-08T08:56:54.114Z,100
2019-01-08T08:57:54.007Z,100
2019-01-08T08:58:53.870Z,100
2019-01-08T08:59:53.948Z,100
2019-01-08T09:00:54.249Z,100
2019-01-08T09:01:53.968Z,100
2019-01-08T09:02:54.004Z,100
2019-01-08T09:03:54.221Z,100
2019-01-08T09:04:54.053Z,100
2019-01-08T09:05:53.965Z,100
2019-01-08T09:06:54.110Z,100
2019-01-08T09:07:54.171Z,100
2019-01-08T09:08:54.293Z,100
2019-01-08T09:09:53.638Z,99.93
2019-01-08T09:10:54.110Z,99.91
2019-01-08T09:11:53.943Z,99.9
2019-01-08T09:12:54.025Z,99.85
2019-01-08T09:13:53.828Z,99.96
2019-01-08T09:14:54.089Z,99.88
2019-01-08T09:15:53.935Z,99.81
2019-01-08T09:16:54.094Z,99.86
2019-01-08T09:17:53.960Z,99.95
2019-01-08T09:18:53.883Z,99.67
2019-01-08T09:19:53.970Z,99.73
2019-01-08T09:20:53.941Z,99.58
2019-01-08T09:21:54.079Z,99.3
2019-01-08T09:22:53.940Z,99.33
2019-01-08T09:23:53.997Z,99.25
2019-01-08T09:24:53.970Z,99.12
2019-01-08T09:25:54.093Z,99.06
2019-01-08T09:26:53.820Z,99
2019-01-08T09:27:54.110Z,99.01
2019-01-08T09:28:53.881Z,98.82
2019-01-08T09:29:53.886Z,98.78
2019-01-08T09:30:53.841Z,98.79
2019-01-08T09:31:53.944Z,98.75
2019-01-08T09:32:54.247Z,98.68
2019-01-08T09:33:53.964Z,98.51
2019-01-08T09:34:53.914Z,97.97
2019-01-08T09:35:54.027Z,98.15
2019-01-08T09:36:53.932Z,98.17
2019-01-08T09:37:53.962Z,98.38
2019-01-08T09:38:53.868Z,98.5
2019-01-08T09:39:54.269Z,98.42
2019-01-08T09:40:53.945Z,98.49
2019-01-08T09:41:54.121Z,98.23
2019-01-08T09:42:54.007Z,98.35
2019-01-08T09:43:53.949Z,98.33
2019-01-08T09:44:53.974Z,98.26
2019-01-08T09:45:54.048Z,98.37
2019-01-08T09:46:54.157Z,98.1
2019-01-08T09:47:53.945Z,98.29
2019-01-08T09:48:53.867Z,98.11
2019-01-08T09:49:53.970Z,97.61
2019-01-08T09:50:54.065Z,97.46
2019-01-08T09:51:53.982Z,96.61
2019-01-08T09:52:54.023Z,96.82
2019-01-08T09:53:53.785Z,96.56
2019-01-08T09:54:54.024Z,96.72
2019-01-08T09:55:54.123Z,96.72
2019-01-08T09:56:54.130Z,96.62
2019-01-08T09:57:53.957Z,96.62
2019-01-08T09:58:53.894Z,96.44
2019-01-08T09:59:54.321Z,96.14
2019-01-08T10:00:53.892Z,95.9
2019-01-08T10:01:53.992Z,95.69
2019-01-08T10:02:53.745Z,95.64
2019-01-08T10:03:53.910Z,95.54
2019-01-08T10:04:54.170Z,94.94
2019-01-08T10:05:53.987Z,95
2019-01-08T10:06:53.897Z,94.85
2019-01-08T10:07:53.726Z,95.05
2019-01-08T10:08:53.740Z,94.78
2019-01-08T10:09:53.912Z,94.26
2019-01-08T10:10:54.065Z,94.01
2019-01-08T10:11:54.116Z,94.06
2019-01-08T10:12:53.899Z,94.14
2019-01-08T10:13:53.773Z,94.14
2019-01-08T10:14:54.064Z,93.77
2019-01-08T10:15:53.948Z,93.31
2019-01-08T10:16:53.751Z,93.3
2019-01-08T10:17:53.984Z,93.21
2019-01-08T10:18:53.958Z,93.16
2019-01-08T10:19:54.043Z,93.33
2019-01-08T10:20:54.540Z,92.73
2019-01-08T10:21:54.555Z,93.06
2019-01-08T10:22:53.941Z,93.4
2019-01-08T10:23:53.887Z,92.86
2019-01-08T10:24:53.719Z,92.67
2019-01-08T10:25:53.741Z,91.79
2019-01-08T10:26:54.007Z,91.42
2019-01-08T10:27:53.907Z,90.96
2019-01-08T10:28:54.023Z,90.48
2019-01-08T10:29:53.724Z,89.69
2019-01-08T10:30:54.234Z,88.54
2019-01-08T10:31:53.721Z,88.77
2019-01-08T10:32:53.726Z,88.75
2019-01-08T10:33:54.583Z,88.2
2019-01-08T10:34:53.980Z,88.29
2019-01-08T10:35:53.770Z,88.33
2019-01-08T10:36:54.122Z,87.1
2019-01-08T10:37:53.909Z,87.34
2019-01-08T10:38:53.990Z,87.94
2019-01-08T10:39:53.721Z,87.2
2019-01-08T10:40:53.782Z,87.71
2019-01-08T10:41:53.790Z,87.07
2019-01-08T10:42:53.916Z,87.68
2019-01-08T10:43:54.530Z,88.04
2019-01-08T10:44:53.897Z,86.72
2019-01-08T10:45:53.899Z,86.24
2019-01-08T10:46:53.777Z,86.12
2019-01-08T10:47:53.802Z,86.35
2019-01-08T10:48:54.403Z,85.92
2019-01-08T10:49:53.846Z,85.99
2019-01-08T10:50:53.706Z,85.9
2019-01-08T10:51:54.098Z,86.59
2019-01-08T10:52:53.700Z,86.15
2019-01-08T10:53:53.942Z,86.44
2019-01-08T10:54:53.724Z,86.09
2019-01-08T10:55:53.861Z,85.54
2019-01-08T10:56:53.941Z,85.65
2019-01-08T10:57:53.897Z,85.89
2019-01-08T10:58:53.842Z,85.04
2019-01-08T10:59:53.947Z,85.61
2019-01-08T11:00:53.732Z,84.74
2019-01-08T11:01:54.109Z,83.92
2019-01-08T11:02:53.678Z,83.27
2019-01-08T11:03:53.750Z,82.68
2019-01-08T11:04:53.704Z,83.26
2019-01-08T11:05:53.695Z,82.95
2019-01-08T11:06:53.737Z,83.09
2019-01-08T11:07:53.869Z,83.45
2019-01-08T11:08:54.042Z,81.93
2019-01-08T11:09:53.648Z,82.11
2019-01-08T11:10:53.751Z,82.26
2019-01-08T11:11:53.691Z,82.31
2019-01-08T11:12:53.713Z,81.31
2019-01-08T11:13:53.977Z,79.88
2019-01-08T11:14:53.657Z,80.93
2019-01-08T11:15:53.692Z,80.94
2019-01-08T11:16:53.687Z,80.95
2019-01-08T11:17:53.801Z,81.14
2019-01-08T11:18:53.705Z,79.81
2019-01-08T11:19:53.665Z,80.23
2019-01-08T11:20:53.821Z,80.83
2019-01-08T11:21:53.746Z,81.26
2019-01-08T11:22:53.736Z,80.11
2019-01-08T11:23:53.669Z,80.79
2019-01-08T11:24:53.899Z,80.3
2019-01-08T11:25:53.890Z,80.85
2019-01-08T11:26:53.738Z,80.04
2019-01-08T11:27:53.645Z,80.41
2019-01-08T11:28:53.867Z,80.19
2019-01-08T11:29:54.459Z,80.34
2019-01-08T11:30:53.668Z,80.09
2019-01-08T11:31:53.728Z,80.41
2019-01-08T11:32:54.783Z,80.88
2019-01-08T11:33:53.904Z,81.06
2019-01-08T11:35:54.197Z,81.84
2019-01-08T11:36:53.943Z,81.75
2019-01-08T11:37:53.757Z,80.76
2019-01-08T11:38:53.831Z,81.67
2019-01-08T11:39:53.992Z,82.09
2019-01-08T11:40:54.118Z,81.12
2019-01-08T11:41:54.022Z,80.77
2019-01-08T11:42:53.904Z,81.8
2019-01-08T11:43:54.002Z,81.93
2019-01-08T11:44:54.459Z,82.03
2019-01-08T11:45:53.684Z,82.41
2019-01-08T11:46:54.447Z,82.52
2019-01-08T11:47:53.875Z,82.3
2019-01-08T11:48:54.011Z,82.18
2019-01-08T11:49:53.606Z,80.9
2019-01-08T11:50:53.953Z,81.29
2019-01-08T11:51:54.131Z,80.7
2019-01-08T11:52:53.733Z,80.45
2019-01-08T11:53:53.753Z,80.39
2019-01-08T11:54:53.742Z,79.87
2019-01-08T11:55:53.717Z,80.32
2019-01-08T11:56:53.899Z,81.11
2019-01-08T11:57:53.950Z,81.14
2019-01-08T11:58:53.919Z,81.27
2019-01-08T11:59:53.813Z,80.75
2019-01-08T12:00:53.620Z,80.53
2019-01-08T12:01:57.300Z,80.25
2019-01-08T12:02:53.927Z,80.69
2019-01-08T12:03:53.733Z,80.57
2019-01-08T12:04:53.672Z,80.12
2019-01-08T12:05:53.984Z,80.4
2019-01-08T12:06:53.890Z,80.3
2019-01-08T12:07:53.604Z,80.24
2019-01-08T12:08:54.040Z,80.15
2019-01-08T12:09:53.593Z,79.86
2019-01-08T12:10:53.701Z,80.06
2019-01-08T12:11:54.035Z,80.22
2019-01-08T12:12:53.610Z,80.72
2019-01-08T12:13:53.821Z,79.88
2019-01-08T12:14:53.747Z,80.11
2019-01-08T12:15:53.619Z,80.09
2019-01-08T12:16:54.018Z,80.14
2019-01-08T12:17:53.623Z,80.42
2019-01-08T12:18:53.634Z,81.19
2019-01-08T12:19:53.715Z,81.72
2019-01-08T12:20:53.700Z,81.64
2019-01-08T12:21:53.605Z,82.02
2019-01-08T12:22:53.916Z,82.42
2019-01-08T12:23:53.686Z,81.35
2019-01-08T12:24:53.658Z,81.7
2019-01-08T12:25:53.926Z,82.11
2019-01-08T12:26:53.625Z,82.62
2019-01-08T12:27:53.700Z,82.2
2019-01-08T12:28:53.595Z,82.68
2019-01-08T12:29:53.937Z,82.86
2019-01-08T12:30:53.604Z,82.83
2019-01-08T12:31:53.520Z,83.49
2019-01-08T12:32:53.541Z,83.66
2019-01-08T12:33:53.646Z,83.67
2019-01-08T12:34:53.637Z,83.85
2019-01-08T12:35:53.589Z,84.22
2019-01-08T12:36:53.528Z,84.21
2019-01-08T12:37:53.525Z,84.91
2019-01-08T12:38:53.690Z,85.06
2019-01-08T12:39:53.684Z,85.03
2019-01-08T12:40:53.956Z,84.69
2019-01-08T12:41:53.860Z,84.34
2019-01-08T12:42:53.565Z,85.15
2019-01-08T12:43:55.631Z,85.27
2019-01-08T12:44:53.975Z,85.21
2019-01-08T12:45:53.888Z,85.72
2019-01-08T12:46:53.724Z,85.83
2019-01-08T12:47:53.585Z,85.49
2019-01-08T12:48:53.722Z,85.95
2019-01-08T12:49:54.456Z,85.88
2019-01-08T12:50:53.583Z,86.28
2019-01-08T12:51:53.524Z,85.36
2019-01-08T12:52:53.493Z,85.48
2019-01-08T12:53:53.608Z,85.41
2019-01-08T12:54:53.881Z,85.65
2019-01-08T12:55:53.680Z,86.16
2019-01-08T12:56:53.531Z,86.36
2019-01-08T12:57:53.745Z,86.22
2019-01-08T12:58:53.534Z,86.28
2019-01-08T12:59:53.556Z,86.51
2019-01-08T13:00:53.499Z,86.71
2019-01-08T13:01:53.564Z,86.26
2019-01-08T13:02:53.612Z,85.87
2019-01-08T13:03:53.595Z,85.9